sensor_id;sensor_type;location;lat;lon;timestamp;P1;durP1;ratioP1;P2;durP2;ratioP2
8488;SDS011;4281;45.772;12.852;2024-01-16T00:04:09;49.10;;;39.13;;
8488;SDS011;4281;45.772;12.852;2024-01-16T00:06:38;49.70;;;39.90;;
8488;SDS011;4281;45.772;12.852;2024-01-16T00:09:06;49.17;;;39.23;;
8488;SDS011;4281;45.772;12.852;2024-01-16T00:11:39;49.03;;;38.77;;
8488;SDS011;4281;45.772;12.852;2024-01-16T00:14:07;47.27;;;39.43;;
8488;SDS011;4281;45.772;12.852;2024-01-16T00:16:41;53.40;;;40.23;;
8488;SDS011;4281;45.772;12.852;2024-01-16T00:19:11;50.30;;;39.17;;
8488;SDS011;4281;45.772;12.852;2024-01-16T00:21:39;48.90;;;38.60;;
8488;SDS011;4281;45.772;12.852;2024-01-16T00:24:07;47.93;;;38.40;;
8488;SDS011;4281;45.772;12.852;2024-01-16T00:26:35;51.37;;;40.80;;
8488;SDS011;4281;45.772;12.852;2024-01-16T00:29:03;46.80;;;37.47;;
8488;SDS011;4281;45.772;12.852;2024-01-16T00:31:32;47.13;;;35.67;;
8488;SDS011;4281;45.772;12.852;2024-01-16T00:34:00;45.93;;;35.20;;
8488;SDS011;4281;45.772;12.852;2024-01-16T00:36:30;41.63;;;34.43;;
8488;SDS011;4281;45.772;12.852;2024-01-16T00:38:58;44.93;;;34.70;;
8488;SDS011;4281;45.772;12.852;2024-01-16T00:41:26;43.97;;;33.13;;
8488;SDS011;4281;45.772;12.852;2024-01-16T00:43:54;44.20;;;33.83;;
8488;SDS011;4281;45.772;12.852;2024-01-16T00:46:22;43.83;;;32.93;;
8488;SDS011;4281;45.772;12.852;2024-01-16T00:48:50;39.33;;;32.60;;
8488;SDS011;4281;45.772;12.852;2024-01-16T00:51:18;42.27;;;33.77;;
8488;SDS011;4281;45.772;12.852;2024-01-16T00:53:47;43.90;;;34.17;;
8488;SDS011;4281;45.772;12.852;2024-01-16T00:56:15;41.97;;;34.07;;
8488;SDS011;4281;45.772;12.852;2024-01-16T00:58:43;42.57;;;33.77;;
8488;SDS011;4281;45.772;12.852;2024-01-16T01:01:11;41.03;;;32.60;;
8488;SDS011;4281;45.772;12.852;2024-01-16T01:03:39;40.97;;;31.53;;
8488;SDS011;4281;45.772;12.852;2024-01-16T01:06:07;41.00;;;32.33;;
8488;SDS011;4281;45.772;12.852;2024-01-16T01:08:35;40.17;;;32.00;;
8488;SDS011;4281;45.772;12.852;2024-01-16T01:11:04;41.33;;;31.47;;
8488;SDS011;4281;45.772;12.852;2024-01-16T01:13:32;40.10;;;32.17;;
8488;SDS011;4281;45.772;12.852;2024-01-16T01:16:00;37.37;;;31.53;;
8488;SDS011;4281;45.772;12.852;2024-01-16T01:18:28;36.77;;;29.03;;
8488;SDS011;4281;45.772;12.852;2024-01-16T01:20:57;35.97;;;28.23;;
8488;SDS011;4281;45.772;12.852;2024-01-16T01:23:24;38.30;;;28.40;;
8488;SDS011;4281;45.772;12.852;2024-01-16T01:25:52;35.23;;;28.37;;
8488;SDS011;4281;45.772;12.852;2024-01-16T01:28:22;33.57;;;28.00;;
8488;SDS011;4281;45.772;12.852;2024-01-16T01:30:50;34.40;;;26.67;;
8488;SDS011;4281;45.772;12.852;2024-01-16T01:33:18;33.50;;;26.40;;
8488;SDS011;4281;45.772;12.852;2024-01-16T01:35:46;34.37;;;26.43;;
8488;SDS011;4281;45.772;12.852;2024-01-16T01:38:14;32.37;;;26.07;;
8488;SDS011;4281;45.772;12.852;2024-01-16T01:40:42;30.40;;;24.77;;
8488;SDS011;4281;45.772;12.852;2024-01-16T01:43:19;29.33;;;24.33;;
8488;SDS011;4281;45.772;12.852;2024-01-16T01:45:52;29.83;;;23.07;;
8488;SDS011;4281;45.772;12.852;2024-01-16T01:48:41;29.60;;;23.70;;
8488;SDS011;4281;45.772;12.852;2024-01-16T01:51:10;29.03;;;23.97;;
8488;SDS011;4281;45.772;12.852;2024-01-16T01:53:40;28.70;;;24.17;;
8488;SDS011;4281;45.772;12.852;2024-01-16T01:56:10;31.57;;;25.30;;
8488;SDS011;4281;45.772;12.852;2024-01-16T01:58:39;29.27;;;24.53;;
8488;SDS011;4281;45.772;12.852;2024-01-16T02:01:10;28.80;;;23.63;;
8488;SDS011;4281;45.772;12.852;2024-01-16T02:03:39;26.83;;;22.03;;
8488;SDS011;4281;45.772;12.852;2024-01-16T02:06:09;26.07;;;20.73;;
8488;SDS011;4281;45.772;12.852;2024-01-16T02:08:38;26.87;;;21.63;;
8488;SDS011;4281;45.772;12.852;2024-01-16T02:11:06;25.07;;;20.67;;
8488;SDS011;4281;45.772;12.852;2024-01-16T02:13:34;24.30;;;19.37;;
8488;SDS011;4281;45.772;12.852;2024-01-16T02:16:02;23.53;;;19.93;;
8488;SDS011;4281;45.772;12.852;2024-01-16T02:18:33;21.93;;;18.27;;
8488;SDS011;4281;45.772;12.852;2024-01-16T02:21:02;22.07;;;17.70;;
8488;SDS011;4281;45.772;12.852;2024-01-16T02:23:34;21.93;;;16.50;;
8488;SDS011;4281;45.772;12.852;2024-01-16T02:26:02;20.67;;;16.47;;
8488;SDS011;4281;45.772;12.852;2024-01-16T02:28:30;20.00;;;16.63;;
8488;SDS011;4281;45.772;12.852;2024-01-16T02:30:58;19.23;;;15.43;;
8488;SDS011;4281;45.772;12.852;2024-01-16T02:33:27;18.87;;;15.60;;
8488;SDS011;4281;45.772;12.852;2024-01-16T02:35:55;17.30;;;14.20;;
8488;SDS011;4281;45.772;12.852;2024-01-16T02:38:23;16.33;;;14.03;;
8488;SDS011;4281;45.772;12.852;2024-01-16T02:40:52;16.23;;;14.50;;
8488;SDS011;4281;45.772;12.852;2024-01-16T02:43:20;17.17;;;14.80;;
8488;SDS011;4281;45.772;12.852;2024-01-16T02:45:48;16.70;;;13.47;;
8488;SDS011;4281;45.772;12.852;2024-01-16T02:48:16;15.80;;;13.53;;
8488;SDS011;4281;45.772;12.852;2024-01-16T02:50:44;16.47;;;13.37;;
8488;SDS011;4281;45.772;12.852;2024-01-16T02:53:12;15.27;;;13.23;;
8488;SDS011;4281;45.772;12.852;2024-01-16T02:55:40;15.47;;;13.43;;
8488;SDS011;4281;45.772;12.852;2024-01-16T02:58:09;16.17;;;13.47;;
8488;SDS011;4281;45.772;12.852;2024-01-16T03:00:37;15.00;;;12.20;;
8488;SDS011;4281;45.772;12.852;2024-01-16T03:03:05;15.23;;;13.23;;
8488;SDS011;4281;45.772;12.852;2024-01-16T03:05:34;16.57;;;13.03;;
8488;SDS011;4281;45.772;12.852;2024-01-16T03:08:02;14.57;;;12.07;;
8488;SDS011;4281;45.772;12.852;2024-01-16T03:10:31;15.63;;;13.40;;
8488;SDS011;4281;45.772;12.852;2024-01-16T03:12:59;16.40;;;12.80;;
8488;SDS011;4281;45.772;12.852;2024-01-16T03:15:28;15.40;;;13.00;;
8488;SDS011;4281;45.772;12.852;2024-01-16T03:17:57;15.47;;;12.97;;
8488;SDS011;4281;45.772;12.852;2024-01-16T03:20:25;15.60;;;13.03;;
8488;SDS011;4281;45.772;12.852;2024-01-16T03:22:53;15.23;;;13.03;;
8488;SDS011;4281;45.772;12.852;2024-01-16T03:25:21;16.10;;;13.37;;
8488;SDS011;4281;45.772;12.852;2024-01-16T03:27:49;15.83;;;12.63;;
8488;SDS011;4281;45.772;12.852;2024-01-16T03:30:17;15.33;;;12.17;;
8488;SDS011;4281;45.772;12.852;2024-01-16T03:32:46;15.63;;;12.10;;
8488;SDS011;4281;45.772;12.852;2024-01-16T03:35:14;14.43;;;12.23;;
8488;SDS011;4281;45.772;12.852;2024-01-16T03:37:42;13.47;;;11.23;;
8488;SDS011;4281;45.772;12.852;2024-01-16T03:40:13;14.30;;;11.83;;
8488;SDS011;4281;45.772;12.852;2024-01-16T03:42:41;13.90;;;11.50;;
8488;SDS011;4281;45.772;12.852;2024-01-16T03:45:09;13.90;;;11.37;;
8488;SDS011;4281;45.772;12.852;2024-01-16T03:47:41;13.33;;;10.73;;
8488;SDS011;4281;45.772;12.852;2024-01-16T03:50:10;13.57;;;11.40;;
8488;SDS011;4281;45.772;12.852;2024-01-16T03:52:39;13.73;;;10.57;;
8488;SDS011;4281;45.772;12.852;2024-01-16T03:55:07;13.70;;;10.70;;
8488;SDS011;4281;45.772;12.852;2024-01-16T03:57:35;14.67;;;11.37;;
8488;SDS011;4281;45.772;12.852;2024-01-16T04:00:04;12.30;;;10.63;;
8488;SDS011;4281;45.772;12.852;2024-01-16T04:02:33;13.00;;;9.93;;
8488;SDS011;4281;45.772;12.852;2024-01-16T04:05:00;12.57;;;10.83;;
8488;SDS011;4281;45.772;12.852;2024-01-16T04:07:30;12.20;;;9.80;;
8488;SDS011;4281;45.772;12.852;2024-01-16T04:09:58;12.57;;;9.73;;
8488;SDS011;4281;45.772;12.852;2024-01-16T04:12:27;14.07;;;10.60;;
8488;SDS011;4281;45.772;12.852;2024-01-16T04:14:55;10.77;;;9.67;;
8488;SDS011;4281;45.772;12.852;2024-01-16T04:17:23;10.87;;;9.60;;
8488;SDS011;4281;45.772;12.852;2024-01-16T04:19:51;11.60;;;9.60;;
8488;SDS011;4281;45.772;12.852;2024-01-16T04:22:19;10.73;;;9.40;;
8488;SDS011;4281;45.772;12.852;2024-01-16T04:24:48;10.70;;;9.07;;
8488;SDS011;4281;45.772;12.852;2024-01-16T04:27:16;10.33;;;8.27;;
8488;SDS011;4281;45.772;12.852;2024-01-16T04:29:44;10.27;;;8.60;;
8488;SDS011;4281;45.772;12.852;2024-01-16T04:32:12;9.47;;;8.20;;
8488;SDS011;4281;45.772;12.852;2024-01-16T04:34:40;9.90;;;7.93;;
8488;SDS011;4281;45.772;12.852;2024-01-16T04:37:08;8.03;;;7.17;;
8488;SDS011;4281;45.772;12.852;2024-01-16T04:39:36;8.80;;;7.67;;
8488;SDS011;4281;45.772;12.852;2024-01-16T04:42:05;8.70;;;7.67;;
8488;SDS011;4281;45.772;12.852;2024-01-16T04:44:33;8.27;;;6.97;;
8488;SDS011;4281;45.772;12.852;2024-01-16T04:47:01;7.90;;;6.60;;
8488;SDS011;4281;45.772;12.852;2024-01-16T04:49:29;8.40;;;6.83;;
8488;SDS011;4281;45.772;12.852;2024-01-16T04:51:57;8.50;;;7.07;;
8488;SDS011;4281;45.772;12.852;2024-01-16T04:54:25;9.10;;;6.77;;
8488;SDS011;4281;45.772;12.852;2024-01-16T04:56:54;8.00;;;6.87;;
8488;SDS011;4281;45.772;12.852;2024-01-16T04:59:23;8.23;;;7.00;;
8488;SDS011;4281;45.772;12.852;2024-01-16T05:01:51;8.30;;;6.37;;
8488;SDS011;4281;45.772;12.852;2024-01-16T05:04:19;8.00;;;6.53;;
8488;SDS011;4281;45.772;12.852;2024-01-16T05:06:50;8.70;;;7.03;;
8488;SDS011;4281;45.772;12.852;2024-01-16T05:09:18;7.23;;;6.43;;
8488;SDS011;4281;45.772;12.852;2024-01-16T05:11:47;7.80;;;7.00;;
8488;SDS011;4281;45.772;12.852;2024-01-16T05:14:16;8.13;;;6.47;;
8488;SDS011;4281;45.772;12.852;2024-01-16T05:16:45;7.27;;;6.33;;
8488;SDS011;4281;45.772;12.852;2024-01-16T05:19:13;7.33;;;6.40;;
8488;SDS011;4281;45.772;12.852;2024-01-16T05:21:41;7.40;;;6.43;;
8488;SDS011;4281;45.772;12.852;2024-01-16T05:24:09;7.93;;;6.57;;
8488;SDS011;4281;45.772;12.852;2024-01-16T05:26:37;8.60;;;6.60;;
8488;SDS011;4281;45.772;12.852;2024-01-16T05:29:05;7.40;;;5.87;;
8488;SDS011;4281;45.772;12.852;2024-01-16T05:31:33;7.77;;;6.40;;
8488;SDS011;4281;45.772;12.852;2024-01-16T05:34:09;6.10;;;5.43;;
8488;SDS011;4281;45.772;12.852;2024-01-16T05:36:37;6.87;;;6.17;;
8488;SDS011;4281;45.772;12.852;2024-01-16T05:39:05;7.23;;;5.93;;
8488;SDS011;4281;45.772;12.852;2024-01-16T05:41:34;8.73;;;6.37;;
8488;SDS011;4281;45.772;12.852;2024-01-16T05:44:02;9.30;;;6.50;;
8488;SDS011;4281;45.772;12.852;2024-01-16T05:46:31;6.70;;;5.00;;
8488;SDS011;4281;45.772;12.852;2024-01-16T05:48:59;7.90;;;5.50;;
8488;SDS011;4281;45.772;12.852;2024-01-16T05:51:29;6.63;;;5.40;;
8488;SDS011;4281;45.772;12.852;2024-01-16T05:53:57;6.33;;;5.30;;
8488;SDS011;4281;45.772;12.852;2024-01-16T05:56:25;5.80;;;5.20;;
8488;SDS011;4281;45.772;12.852;2024-01-16T05:58:53;6.00;;;5.27;;
8488;SDS011;4281;45.772;12.852;2024-01-16T06:01:21;5.77;;;4.97;;
8488;SDS011;4281;45.772;12.852;2024-01-16T06:03:49;6.30;;;5.43;;
8488;SDS011;4281;45.772;12.852;2024-01-16T06:06:17;5.03;;;4.53;;
8488;SDS011;4281;45.772;12.852;2024-01-16T06:08:48;5.63;;;5.13;;
8488;SDS011;4281;45.772;12.852;2024-01-16T06:11:16;6.13;;;5.13;;
8488;SDS011;4281;45.772;12.852;2024-01-16T06:13:44;6.20;;;5.33;;
8488;SDS011;4281;45.772;12.852;2024-01-16T06:16:12;7.50;;;5.57;;
8488;SDS011;4281;45.772;12.852;2024-01-16T06:18:40;6.00;;;5.40;;
8488;SDS011;4281;45.772;12.852;2024-01-16T06:21:08;6.90;;;6.20;;
8488;SDS011;4281;45.772;12.852;2024-01-16T06:23:38;8.67;;;6.93;;
8488;SDS011;4281;45.772;12.852;2024-01-16T06:26:08;8.27;;;7.03;;
8488;SDS011;4281;45.772;12.852;2024-01-16T06:28:37;8.97;;;6.93;;
8488;SDS011;4281;45.772;12.852;2024-01-16T06:31:04;7.97;;;7.10;;
8488;SDS011;4281;45.772;12.852;2024-01-16T06:33:34;7.97;;;6.40;;
8488;SDS011;4281;45.772;12.852;2024-01-16T06:36:02;7.37;;;6.57;;
8488;SDS011;4281;45.772;12.852;2024-01-16T06:38:31;7.33;;;6.40;;
8488;SDS011;4281;45.772;12.852;2024-01-16T06:40:59;9.27;;;7.33;;
8488;SDS011;4281;45.772;12.852;2024-01-16T06:43:29;8.40;;;7.27;;
8488;SDS011;4281;45.772;12.852;2024-01-16T06:45:57;9.30;;;7.73;;
8488;SDS011;4281;45.772;12.852;2024-01-16T06:48:25;8.97;;;7.73;;
8488;SDS011;4281;45.772;12.852;2024-01-16T06:50:53;9.37;;;8.37;;
8488;SDS011;4281;45.772;12.852;2024-01-16T06:53:22;11.03;;;8.90;;
8488;SDS011;4281;45.772;12.852;2024-01-16T06:55:50;8.67;;;7.77;;
8488;SDS011;4281;45.772;12.852;2024-01-16T06:58:18;10.33;;;8.77;;
8488;SDS011;4281;45.772;12.852;2024-01-16T07:00:48;11.90;;;9.07;;
8488;SDS011;4281;45.772;12.852;2024-01-16T07:03:16;9.53;;;8.53;;
8488;SDS011;4281;45.772;12.852;2024-01-16T07:05:45;11.30;;;9.40;;
8488;SDS011;4281;45.772;12.852;2024-01-16T07:08:14;10.97;;;9.23;;
8488;SDS011;4281;45.772;12.852;2024-01-16T07:10:41;11.10;;;9.10;;
8488;SDS011;4281;45.772;12.852;2024-01-16T07:13:09;11.97;;;9.17;;
8488;SDS011;4281;45.772;12.852;2024-01-16T07:15:38;11.43;;;9.03;;
8488;SDS011;4281;45.772;12.852;2024-01-16T07:18:08;13.37;;;9.30;;
8488;SDS011;4281;45.772;12.852;2024-01-16T07:20:36;11.53;;;8.60;;
8488;SDS011;4281;45.772;12.852;2024-01-16T07:23:04;10.30;;;9.03;;
8488;SDS011;4281;45.772;12.852;2024-01-16T07:25:33;10.73;;;8.60;;
8488;SDS011;4281;45.772;12.852;2024-01-16T07:28:00;10.10;;;8.23;;
8488;SDS011;4281;45.772;12.852;2024-01-16T07:30:28;10.77;;;8.60;;
8488;SDS011;4281;45.772;12.852;2024-01-16T07:32:56;9.30;;;7.83;;
8488;SDS011;4281;45.772;12.852;2024-01-16T07:35:26;9.70;;;7.60;;
8488;SDS011;4281;45.772;12.852;2024-01-16T07:37:54;9.73;;;8.27;;
8488;SDS011;4281;45.772;12.852;2024-01-16T07:40:22;10.40;;;8.20;;
8488;SDS011;4281;45.772;12.852;2024-01-16T07:42:50;10.13;;;8.03;;
8488;SDS011;4281;45.772;12.852;2024-01-16T07:45:18;10.07;;;8.17;;
8488;SDS011;4281;45.772;12.852;2024-01-16T07:47:46;9.97;;;8.03;;
8488;SDS011;4281;45.772;12.852;2024-01-16T07:50:14;10.03;;;8.27;;
8488;SDS011;4281;45.772;12.852;2024-01-16T07:52:43;9.60;;;8.60;;
8488;SDS011;4281;45.772;12.852;2024-01-16T07:55:11;10.37;;;8.87;;
8488;SDS011;4281;45.772;12.852;2024-01-16T07:57:39;11.23;;;8.60;;
8488;SDS011;4281;45.772;12.852;2024-01-16T08:00:07;11.77;;;8.43;;
8488;SDS011;4281;45.772;12.852;2024-01-16T08:02:38;11.20;;;8.83;;
8488;SDS011;4281;45.772;12.852;2024-01-16T08:05:06;9.73;;;8.10;;
8488;SDS011;4281;45.772;12.852;2024-01-16T08:07:35;8.83;;;7.77;;
8488;SDS011;4281;45.772;12.852;2024-01-16T08:10:04;9.47;;;7.73;;
8488;SDS011;4281;45.772;12.852;2024-01-16T08:12:33;9.20;;;8.07;;
8488;SDS011;4281;45.772;12.852;2024-01-16T08:15:01;9.70;;;8.13;;
8488;SDS011;4281;45.772;12.852;2024-01-16T08:17:29;9.17;;;8.10;;
8488;SDS011;4281;45.772;12.852;2024-01-16T08:19:57;8.50;;;7.30;;
8488;SDS011;4281;45.772;12.852;2024-01-16T08:22:24;7.67;;;6.87;;
8488;SDS011;4281;45.772;12.852;2024-01-16T08:24:52;8.10;;;6.90;;
8488;SDS011;4281;45.772;12.852;2024-01-16T08:27:22;8.03;;;7.13;;
8488;SDS011;4281;45.772;12.852;2024-01-16T08:29:49;7.97;;;6.80;;
8488;SDS011;4281;45.772;12.852;2024-01-16T08:32:17;8.63;;;7.03;;
8488;SDS011;4281;45.772;12.852;2024-01-16T08:34:46;9.53;;;7.30;;
8488;SDS011;4281;45.772;12.852;2024-01-16T08:37:14;7.77;;;6.50;;
8488;SDS011;4281;45.772;12.852;2024-01-16T08:39:42;9.03;;;7.17;;
8488;SDS011;4281;45.772;12.852;2024-01-16T08:42:09;8.37;;;6.87;;
8488;SDS011;4281;45.772;12.852;2024-01-16T08:44:40;7.20;;;6.50;;
8488;SDS011;4281;45.772;12.852;2024-01-16T08:47:08;7.23;;;6.47;;
8488;SDS011;4281;45.772;12.852;2024-01-16T08:49:36;6.70;;;6.00;;
8488;SDS011;4281;45.772;12.852;2024-01-16T08:52:05;7.00;;;6.30;;
8488;SDS011;4281;45.772;12.852;2024-01-16T08:54:33;6.60;;;5.90;;
8488;SDS011;4281;45.772;12.852;2024-01-16T08:57:01;6.90;;;5.80;;
8488;SDS011;4281;45.772;12.852;2024-01-16T08:59:29;7.43;;;5.73;;
8488;SDS011;4281;45.772;12.852;2024-01-16T09:01:59;7.03;;;6.33;;
8488;SDS011;4281;45.772;12.852;2024-01-16T09:04:26;6.53;;;5.93;;
8488;SDS011;4281;45.772;12.852;2024-01-16T09:06:54;7.00;;;6.17;;
8488;SDS011;4281;45.772;12.852;2024-01-16T09:09:23;6.03;;;5.20;;
8488;SDS011;4281;45.772;12.852;2024-01-16T09:11:51;6.10;;;5.33;;
8488;SDS011;4281;45.772;12.852;2024-01-16T09:14:18;7.27;;;5.70;;
8488;SDS011;4281;45.772;12.852;2024-01-16T09:16:46;6.07;;;5.33;;
8488;SDS011;4281;45.772;12.852;2024-01-16T09:19:16;6.80;;;5.53;;
8488;SDS011;4281;45.772;12.852;2024-01-16T09:21:44;6.60;;;5.53;;
8488;SDS011;4281;45.772;12.852;2024-01-16T09:24:12;5.67;;;5.00;;
8488;SDS011;4281;45.772;12.852;2024-01-16T09:26:40;5.03;;;4.30;;
8488;SDS011;4281;45.772;12.852;2024-01-16T09:29:08;6.13;;;5.47;;
8488;SDS011;4281;45.772;12.852;2024-01-16T09:31:37;6.40;;;5.00;;
8488;SDS011;4281;45.772;12.852;2024-01-16T09:34:05;5.60;;;4.63;;
8488;SDS011;4281;45.772;12.852;2024-01-16T09:36:36;5.07;;;4.57;;
8488;SDS011;4281;45.772;12.852;2024-01-16T09:39:05;5.20;;;4.70;;
8488;SDS011;4281;45.772;12.852;2024-01-16T09:41:34;5.53;;;4.77;;
8488;SDS011;4281;45.772;12.852;2024-01-16T09:44:05;6.73;;;4.53;;
8488;SDS011;4281;45.772;12.852;2024-01-16T09:46:34;6.87;;;4.70;;
8488;SDS011;4281;45.772;12.852;2024-01-16T09:49:05;6.20;;;4.70;;
8488;SDS011;4281;45.772;12.852;2024-01-16T09:51:34;4.27;;;3.87;;
8488;SDS011;4281;45.772;12.852;2024-01-16T09:54:03;4.90;;;4.00;;
8488;SDS011;4281;45.772;12.852;2024-01-16T09:56:35;4.00;;;3.60;;
8488;SDS011;4281;45.772;12.852;2024-01-16T09:59:09;4.37;;;3.70;;
8488;SDS011;4281;45.772;12.852;2024-01-16T10:01:37;4.23;;;3.60;;
8488;SDS011;4281;45.772;12.852;2024-01-16T10:04:05;4.23;;;3.70;;
8488;SDS011;4281;45.772;12.852;2024-01-16T10:06:33;4.10;;;3.57;;
8488;SDS011;4281;45.772;12.852;2024-01-16T10:09:01;3.77;;;3.23;;
8488;SDS011;4281;45.772;12.852;2024-01-16T10:11:31;4.77;;;3.47;;
8488;SDS011;4281;45.772;12.852;2024-01-16T10:14:00;5.00;;;3.07;;
8488;SDS011;4281;45.772;12.852;2024-01-16T10:19:22;4.07;;;3.57;;
8488;SDS011;4281;45.772;12.852;2024-01-16T10:22:08;3.40;;;3.10;;
8488;SDS011;4281;45.772;12.852;2024-01-16T10:24:36;3.17;;;2.87;;
8488;SDS011;4281;45.772;12.852;2024-01-16T10:27:05;3.10;;;2.60;;
8488;SDS011;4281;45.772;12.852;2024-01-16T10:29:33;3.13;;;2.83;;
8488;SDS011;4281;45.772;12.852;2024-01-16T10:32:17;3.17;;;2.87;;
8488;SDS011;4281;45.772;12.852;2024-01-16T10:35:02;3.73;;;2.70;;
8488;SDS011;4281;45.772;12.852;2024-01-16T10:37:46;3.20;;;2.90;;
8488;SDS011;4281;45.772;12.852;2024-01-16T10:40:15;2.93;;;2.73;;
8488;SDS011;4281;45.772;12.852;2024-01-16T10:42:56;2.87;;;2.67;;
8488;SDS011;4281;45.772;12.852;2024-01-16T10:45:26;3.20;;;2.90;;
8488;SDS011;4281;45.772;12.852;2024-01-16T10:48:00;3.93;;;2.93;;
8488;SDS011;4281;45.772;12.852;2024-01-16T10:50:29;3.27;;;2.90;;
8488;SDS011;4281;45.772;12.852;2024-01-16T10:52:59;3.30;;;3.00;;
8488;SDS011;4281;45.772;12.852;2024-01-16T10:55:28;3.27;;;2.97;;
8488;SDS011;4281;45.772;12.852;2024-01-16T10:57:58;3.17;;;2.87;;
8488;SDS011;4281;45.772;12.852;2024-01-16T11:00:27;3.30;;;3.00;;
8488;SDS011;4281;45.772;12.852;2024-01-16T11:02:58;3.17;;;2.87;;
8488;SDS011;4281;45.772;12.852;2024-01-16T11:05:27;3.53;;;2.60;;
8488;SDS011;4281;45.772;12.852;2024-01-16T11:07:58;2.40;;;2.20;;
8488;SDS011;4281;45.772;12.852;2024-01-16T11:10:27;2.93;;;2.63;;
8488;SDS011;4281;45.772;12.852;2024-01-16T11:12:55;2.70;;;2.37;;
8488;SDS011;4281;45.772;12.852;2024-01-16T11:15:29;2.50;;;2.30;;
8488;SDS011;4281;45.772;12.852;2024-01-16T11:17:58;2.80;;;2.20;;
8488;SDS011;4281;45.772;12.852;2024-01-16T11:20:27;3.07;;;2.77;;
8488;SDS011;4281;45.772;12.852;2024-01-16T11:23:16;3.00;;;2.50;;
8488;SDS011;4281;45.772;12.852;2024-01-16T11:25:44;3.07;;;2.67;;
8488;SDS011;4281;45.772;12.852;2024-01-16T11:28:15;3.13;;;2.50;;
8488;SDS011;4281;45.772;12.852;2024-01-16T11:30:45;3.10;;;2.80;;
8488;SDS011;4281;45.772;12.852;2024-01-16T11:39:10;3.07;;;2.77;;
8488;SDS011;4281;45.772;12.852;2024-01-16T11:41:48;3.20;;;2.63;;
8488;SDS011;4281;45.772;12.852;2024-01-16T11:47:06;2.30;;;2.00;;
8488;SDS011;4281;45.772;12.852;2024-01-16T11:49:35;2.50;;;2.30;;
8488;SDS011;4281;45.772;12.852;2024-01-16T11:52:04;3.10;;;2.80;;
8488;SDS011;4281;45.772;12.852;2024-01-16T11:54:33;3.00;;;2.70;;
8488;SDS011;4281;45.772;12.852;2024-01-16T11:57:12;2.87;;;2.67;;
8488;SDS011;4281;45.772;12.852;2024-01-16T11:59:59;3.17;;;2.50;;
8488;SDS011;4281;45.772;12.852;2024-01-16T12:02:42;2.83;;;2.57;;
8488;SDS011;4281;45.772;12.852;2024-01-16T12:05:17;3.00;;;2.70;;
8488;SDS011;4281;45.772;12.852;2024-01-16T12:07:45;2.83;;;2.53;;
8488;SDS011;4281;45.772;12.852;2024-01-16T12:10:16;2.73;;;2.20;;
8488;SDS011;4281;45.772;12.852;2024-01-16T12:12:45;2.90;;;2.63;;
8488;SDS011;4281;45.772;12.852;2024-01-16T12:15:16;2.93;;;2.70;;
8488;SDS011;4281;45.772;12.852;2024-01-16T12:17:51;2.80;;;2.60;;
8488;SDS011;4281;45.772;12.852;2024-01-16T12:20:20;3.07;;;2.77;;
8488;SDS011;4281;45.772;12.852;2024-01-16T12:22:53;3.37;;;2.77;;
8488;SDS011;4281;45.772;12.852;2024-01-16T12:25:22;3.17;;;2.80;;
8488;SDS011;4281;45.772;12.852;2024-01-16T12:28:10;3.27;;;2.77;;
8488;SDS011;4281;45.772;12.852;2024-01-16T12:30:39;2.90;;;2.70;;
8488;SDS011;4281;45.772;12.852;2024-01-16T12:33:07;2.70;;;2.50;;
8488;SDS011;4281;45.772;12.852;2024-01-16T12:35:37;2.60;;;2.40;;
8488;SDS011;4281;45.772;12.852;2024-01-16T12:38:06;2.60;;;2.40;;
8488;SDS011;4281;45.772;12.852;2024-01-16T12:40:35;2.20;;;2.00;;
8488;SDS011;4281;45.772;12.852;2024-01-16T12:43:04;2.50;;;2.30;;
8488;SDS011;4281;45.772;12.852;2024-01-16T12:45:33;2.30;;;2.10;;
8488;SDS011;4281;45.772;12.852;2024-01-16T12:48:02;3.70;;;2.63;;
8488;SDS011;4281;45.772;12.852;2024-01-16T12:50:31;3.40;;;2.50;;
8488;SDS011;4281;45.772;12.852;2024-01-16T12:53:00;3.07;;;2.10;;
8488;SDS011;4281;45.772;12.852;2024-01-16T12:55:33;3.03;;;2.33;;
8488;SDS011;4281;45.772;12.852;2024-01-16T12:58:11;2.50;;;2.30;;
8488;SDS011;4281;45.772;12.852;2024-01-16T13:00:40;2.50;;;2.30;;
8488;SDS011;4281;45.772;12.852;2024-01-16T13:03:15;2.33;;;1.83;;
8488;SDS011;4281;45.772;12.852;2024-01-16T13:05:44;2.43;;;2.23;;
8488;SDS011;4281;45.772;12.852;2024-01-16T13:08:17;2.50;;;2.10;;
8488;SDS011;4281;45.772;12.852;2024-01-16T13:10:45;2.30;;;2.10;;
8488;SDS011;4281;45.772;12.852;2024-01-16T13:13:14;2.47;;;2.27;;
8488;SDS011;4281;45.772;12.852;2024-01-16T13:15:43;1.93;;;1.83;;
8488;SDS011;4281;45.772;12.852;2024-01-16T13:18:19;2.30;;;2.10;;
8488;SDS011;4281;45.772;12.852;2024-01-16T13:20:49;2.10;;;1.90;;
8488;SDS011;4281;45.772;12.852;2024-01-16T13:23:17;2.10;;;1.90;;
8488;SDS011;4281;45.772;12.852;2024-01-16T13:25:46;3.27;;;2.50;;
8488;SDS011;4281;45.772;12.852;2024-01-16T13:28:15;2.10;;;1.90;;
8488;SDS011;4281;45.772;12.852;2024-01-16T13:30:44;2.20;;;2.00;;
8488;SDS011;4281;45.772;12.852;2024-01-16T13:33:13;2.40;;;2.07;;
8488;SDS011;4281;45.772;12.852;2024-01-16T13:35:44;3.27;;;2.60;;
8488;SDS011;4281;45.772;12.852;2024-01-16T13:38:14;3.50;;;3.03;;
8488;SDS011;4281;45.772;12.852;2024-01-16T13:40:43;2.90;;;2.37;;
8488;SDS011;4281;45.772;12.852;2024-01-16T13:43:10;3.00;;;2.37;;
8488;SDS011;4281;45.772;12.852;2024-01-16T13:45:39;2.60;;;2.40;;
8488;SDS011;4281;45.772;12.852;2024-01-16T13:48:07;2.77;;;2.10;;
8488;SDS011;4281;45.772;12.852;2024-01-16T13:50:36;2.40;;;2.20;;
8488;SDS011;4281;45.772;12.852;2024-01-16T13:53:06;2.77;;;2.47;;
8488;SDS011;4281;45.772;12.852;2024-01-16T13:55:34;2.60;;;2.40;;
8488;SDS011;4281;45.772;12.852;2024-01-16T13:58:03;2.50;;;2.30;;
8488;SDS011;4281;45.772;12.852;2024-01-16T14:00:31;2.73;;;2.53;;
8488;SDS011;4281;45.772;12.852;2024-01-16T14:02:59;3.80;;;2.30;;
8488;SDS011;4281;45.772;12.852;2024-01-16T14:05:29;3.27;;;2.70;;
8488;SDS011;4281;45.772;12.852;2024-01-16T14:07:58;3.33;;;2.30;;
8488;SDS011;4281;45.772;12.852;2024-01-16T14:10:27;2.87;;;2.33;;
8488;SDS011;4281;45.772;12.852;2024-01-16T14:12:55;2.70;;;2.20;;
8488;SDS011;4281;45.772;12.852;2024-01-16T14:15:23;2.80;;;2.53;;
8488;SDS011;4281;45.772;12.852;2024-01-16T14:17:52;4.03;;;2.87;;
8488;SDS011;4281;45.772;12.852;2024-01-16T14:20:21;3.27;;;2.97;;
8488;SDS011;4281;45.772;12.852;2024-01-16T14:22:53;2.57;;;2.37;;
8488;SDS011;4281;45.772;12.852;2024-01-16T14:25:22;3.93;;;2.80;;
8488;SDS011;4281;45.772;12.852;2024-01-16T14:27:58;2.83;;;2.40;;
8488;SDS011;4281;45.772;12.852;2024-01-16T14:30:30;3.77;;;2.80;;
8488;SDS011;4281;45.772;12.852;2024-01-16T14:32:58;2.83;;;2.57;;
8488;SDS011;4281;45.772;12.852;2024-01-16T14:35:27;2.90;;;2.63;;
8488;SDS011;4281;45.772;12.852;2024-01-16T14:37:55;2.60;;;2.40;;
8488;SDS011;4281;45.772;12.852;2024-01-16T14:40:23;2.97;;;2.70;;
8488;SDS011;4281;45.772;12.852;2024-01-16T14:42:52;3.47;;;3.00;;
8488;SDS011;4281;45.772;12.852;2024-01-16T14:45:23;3.13;;;2.83;;
8488;SDS011;4281;45.772;12.852;2024-01-16T14:47:52;4.10;;;3.37;;
8488;SDS011;4281;45.772;12.852;2024-01-16T14:50:21;4.60;;;3.90;;
8488;SDS011;4281;45.772;12.852;2024-01-16T14:52:51;3.30;;;3.00;;
8488;SDS011;4281;45.772;12.852;2024-01-16T14:55:19;3.40;;;2.90;;
8488;SDS011;4281;45.772;12.852;2024-01-16T14:57:48;4.07;;;3.67;;
8488;SDS011;4281;45.772;12.852;2024-01-16T15:00:19;3.50;;;3.20;;
8488;SDS011;4281;45.772;12.852;2024-01-16T15:02:51;2.90;;;2.60;;
8488;SDS011;4281;45.772;12.852;2024-01-16T15:05:20;3.10;;;2.60;;
8488;SDS011;4281;45.772;12.852;2024-01-16T15:07:49;3.40;;;2.80;;
8488;SDS011;4281;45.772;12.852;2024-01-16T15:10:18;3.27;;;2.87;;
8488;SDS011;4281;45.772;12.852;2024-01-16T15:12:46;3.10;;;2.80;;
8488;SDS011;4281;45.772;12.852;2024-01-16T15:15:15;2.53;;;2.33;;
8488;SDS011;4281;45.772;12.852;2024-01-16T15:17:43;3.23;;;2.53;;
8488;SDS011;4281;45.772;12.852;2024-01-16T15:20:13;3.77;;;2.80;;